createdAt,value
2023-04-23T00:00:57.644Z,82.65
2023-04-23T00:03:27.123Z,82.86
2023-04-23T00:05:57.782Z,82.87
2023-04-23T00:08:24.939Z,83.36
2023-04-23T00:10:57.322Z,83.91
2023-04-23T00:13:30.720Z,83.80
2023-04-23T00:15:57.611Z,84.12
2023-04-23T00:18:24.174Z,84.86
2023-04-23T00:20:50.717Z,84.86
2023-04-23T00:23:17.570Z,85.27
2023-04-23T00:25:44.080Z,85.28
2023-04-23T00:28:13.460Z,85.40
2023-04-23T00:30:40.087Z,85.44
2023-04-23T00:33:12.210Z,85.89
2023-04-23T00:35:39.206Z,85.20
2023-04-23T00:38:06.116Z,85.45
2023-04-23T00:40:32.591Z,85.90
2023-04-23T00:43:00.203Z,86.44
2023-04-23T00:45:29.741Z,86.70
2023-04-23T00:47:56.595Z,87.37
2023-04-23T00:50:31.136Z,86.87
2023-04-23T00:53:00.982Z,86.90
2023-04-23T00:55:30.996Z,87.01
2023-04-23T00:57:57.570Z,87.65
2023-04-23T01:00:24.681Z,87.97
2023-04-23T01:02:54.712Z,87.84
2023-04-23T01:05:26.475Z,87.62
2023-04-23T01:07:54.041Z,88.04
2023-04-23T01:10:23.868Z,87.77
2023-04-23T01:12:53.390Z,87.85
2023-04-23T01:15:19.932Z,87.19
2023-04-23T01:17:49.027Z,87.88
2023-04-23T01:20:19.052Z,87.48
2023-04-23T01:22:51.354Z,87.47
2023-04-23T01:25:21.223Z,88.60
2023-04-23T01:27:50.926Z,89.28
2023-04-23T01:30:17.754Z,89.09
2023-04-23T01:32:44.477Z,89.99
2023-04-23T01:35:14.661Z,90.36
2023-04-23T01:37:48.631Z,91.56
2023-04-23T01:40:15.312Z,92.55
2023-04-23T01:42:41.848Z,93.42
2023-04-23T01:45:15.335Z,94.01
2023-04-23T01:47:42.134Z,94.59
2023-04-23T01:50:12.581Z,95.61
2023-04-23T01:52:41.823Z,96.42
2023-04-23T01:55:09.408Z,97.99
2023-04-23T01:57:39.715Z,98.80
2023-04-23T02:00:11.119Z,99.86
2023-04-23T02:02:39.474Z,100.00
2023-04-23T02:05:11.671Z,100.00
2023-04-23T02:07:38.590Z,100.00
2023-04-23T02:10:08.264Z,100.00
2023-04-23T02:12:44.570Z,100.00
2023-04-23T02:15:12.342Z,100.00
2023-04-23T02:17:40.026Z,100.00
2023-04-23T02:20:09.723Z,100.00
2023-04-23T02:22:41.475Z,100.00
2023-04-23T02:25:08.907Z,100.00
2023-04-23T02:27:35.719Z,100.00
2023-04-23T02:30:06.002Z,100.00
2023-04-23T02:32:37.671Z,100.00
2023-04-23T02:35:06.526Z,100.00
2023-04-23T02:37:33.855Z,100.00
2023-04-23T02:40:00.313Z,100.00
2023-04-23T02:42:27.018Z,100.00
2023-04-23T02:44:53.461Z,100.00
2023-04-23T02:47:19.972Z,100.00
2023-04-23T02:49:46.454Z,100.00
2023-04-23T02:52:13.035Z,100.00
2023-04-23T02:54:40.905Z,100.00
2023-04-23T02:57:07.636Z,100.00
2023-04-23T02:59:34.125Z,100.00
2023-04-23T03:02:00.784Z,100.00
2023-04-23T03:04:27.756Z,100.00
2023-04-23T03:06:54.243Z,100.00
2023-04-23T03:09:20.765Z,100.00
2023-04-23T03:11:48.048Z,100.00
2023-04-23T03:14:14.588Z,100.00
2023-04-23T03:16:41.115Z,100.00
2023-04-23T03:19:07.694Z,100.00
2023-04-23T03:21:34.133Z,100.00
2023-04-23T03:24:01.229Z,100.00
2023-04-23T03:26:27.673Z,100.00
2023-04-23T03:28:54.476Z,100.00
2023-04-23T03:31:20.976Z,100.00
2023-04-23T03:33:47.490Z,100.00
2023-04-23T03:36:14.093Z,100.00
2023-04-23T03:38:40.650Z,100.00
2023-04-23T03:41:10.484Z,100.00
2023-04-23T03:43:36.966Z,100.00
2023-04-23T03:46:03.467Z,100.00
2023-04-23T03:48:30.021Z,100.00
2023-04-23T03:50:56.487Z,100.00
2023-04-23T03:53:22.973Z,100.00
2023-04-23T03:55:49.458Z,100.00
2023-04-23T03:58:16.078Z,100.00
2023-04-23T04:00:42.605Z,100.00
2023-04-23T04:03:09.296Z,100.00
2023-04-23T04:05:36.007Z,100.00
2023-04-23T04:08:03.048Z,100.00
2023-04-23T04:10:29.623Z,100.00
2023-04-23T04:12:56.190Z,100.00
2023-04-23T04:15:22.854Z,100.00
2023-04-23T04:17:49.444Z,100.00
2023-04-23T04:20:15.925Z,100.00
2023-04-23T04:22:42.466Z,100.00
2023-04-23T04:25:09.744Z,100.00
2023-04-23T04:27:36.265Z,100.00
2023-04-23T04:30:03.320Z,100.00
2023-04-23T04:32:29.854Z,100.00
2023-04-23T04:34:57.364Z,100.00
2023-04-23T04:37:24.284Z,100.00
2023-04-23T04:39:51.233Z,100.00
2023-04-23T04:42:17.667Z,100.00
2023-04-23T04:44:44.312Z,100.00
2023-04-23T04:47:10.903Z,100.00
2023-04-23T04:49:38.275Z,100.00
2023-04-23T04:52:07.537Z,100.00
2023-04-23T04:54:34.038Z,100.00
2023-04-23T04:57:02.260Z,100.00
2023-04-23T04:59:28.801Z,100.00
2023-04-23T05:01:55.294Z,100.00
2023-04-23T05:04:21.815Z,100.00
2023-04-23T05:06:48.328Z,100.00
2023-04-23T05:09:14.807Z,100.00
2023-04-23T05:11:41.486Z,100.00
2023-04-23T05:14:08.382Z,100.00
2023-04-23T05:16:35.299Z,100.00
2023-04-23T05:19:01.792Z,100.00
2023-04-23T05:21:28.343Z,100.00
2023-04-23T05:23:55.494Z,100.00
2023-04-23T05:26:21.970Z,100.00
2023-04-23T05:28:48.418Z,100.00
2023-04-23T05:31:17.945Z,100.00
2023-04-23T05:33:50.021Z,100.00
2023-04-23T05:36:17.885Z,100.00
2023-04-23T05:38:44.712Z,100.00
2023-04-23T05:41:11.443Z,100.00
2023-04-23T05:43:37.968Z,100.00
2023-04-23T05:46:06.509Z,100.00
2023-04-23T05:48:33.869Z,100.00
2023-04-23T05:51:00.497Z,100.00
2023-04-23T05:53:28.360Z,100.00
2023-04-23T05:55:54.866Z,100.00
2023-04-23T05:58:25.812Z,100.00
2023-04-23T06:00:53.285Z,100.00
2023-04-23T06:03:20.094Z,100.00
2023-04-23T06:05:46.944Z,100.00
2023-04-23T06:08:13.454Z,100.00
2023-04-23T06:10:39.994Z,100.00
2023-04-23T06:13:06.490Z,100.00
2023-04-23T06:15:32.987Z,100.00
2023-04-23T06:17:59.524Z,100.00
2023-04-23T06:20:26.235Z,100.00
2023-04-23T06:22:53.477Z,100.00
2023-04-23T06:25:20.123Z,100.00
2023-04-23T06:27:46.714Z,100.00
2023-04-23T06:30:13.433Z,100.00
2023-04-23T06:32:39.992Z,100.00
2023-04-23T06:35:07.566Z,100.00
2023-04-23T06:37:34.752Z,100.00
2023-04-23T06:40:01.255Z,100.00
2023-04-23T06:42:27.787Z,100.00
2023-04-23T06:44:54.458Z,100.00
2023-04-23T06:47:21.036Z,100.00
2023-04-23T06:49:47.520Z,100.00
2023-04-23T06:52:14.026Z,100.00
2023-04-23T06:54:40.958Z,100.00
2023-04-23T06:57:07.634Z,100.00
2023-04-23T06:59:34.138Z,100.00
2023-04-23T07:02:00.843Z,100.00
2023-04-23T07:04:27.329Z,100.00
2023-04-23T07:06:54.130Z,100.00
2023-04-23T07:09:20.874Z,100.00
2023-04-23T07:11:47.637Z,100.00
2023-04-23T07:14:14.141Z,100.00
2023-04-23T07:16:40.902Z,100.00
2023-04-23T07:19:07.415Z,100.00
2023-04-23T07:21:33.980Z,100.00
2023-04-23T07:24:00.832Z,100.00
2023-04-23T07:26:27.997Z,100.00
2023-04-23T07:28:54.633Z,100.00
2023-04-23T07:31:21.947Z,100.00
2023-04-23T07:33:48.460Z,100.00
2023-04-23T07:36:15.129Z,100.00
2023-04-23T07:38:43.337Z,100.00
2023-04-23T07:41:09.946Z,100.00
2023-04-23T07:43:36.428Z,100.00
2023-04-23T07:46:03.152Z,100.00
2023-04-23T07:48:29.748Z,100.00
2023-04-23T07:50:56.982Z,100.00
2023-04-23T07:53:28.641Z,100.00
2023-04-23T07:55:56.541Z,100.00
2023-04-23T07:58:24.705Z,100.00
2023-04-23T08:00:51.469Z,100.00
2023-04-23T08:03:18.233Z,99.80
2023-04-23T08:05:44.971Z,96.48
2023-04-23T08:08:12.722Z,95.46
2023-04-23T08:10:39.179Z,92.28
2023-04-23T08:13:05.817Z,90.92
2023-04-23T08:15:32.318Z,90.34
2023-04-23T08:17:58.809Z,90.54
2023-04-23T08:20:25.916Z,87.45
2023-04-23T08:22:53.712Z,86.94
2023-04-23T08:25:22.973Z,87.47
2023-04-23T08:27:50.076Z,84.63
2023-04-23T08:30:16.556Z,86.96
2023-04-23T08:32:43.042Z,83.55
2023-04-23T08:35:10.204Z,85.72
2023-04-23T08:37:36.820Z,86.13
2023-04-23T08:40:05.016Z,82.90
2023-04-23T08:42:40.291Z,81.79
2023-04-23T08:45:07.583Z,79.53
2023-04-23T08:47:35.309Z,78.26
2023-04-23T08:50:04.308Z,76.73
2023-04-23T08:52:37.115Z,77.72
2023-04-23T08:55:10.620Z,77.64
2023-04-23T08:57:40.663Z,79.07
2023-04-23T09:00:10.125Z,77.28
2023-04-23T09:02:42.433Z,77.20
2023-04-23T09:05:09.604Z,74.89
2023-04-23T09:07:36.877Z,78.04
2023-04-23T09:10:06.093Z,78.59
2023-04-23T09:12:35.571Z,76.40
2023-04-23T09:15:10.353Z,75.93
2023-04-23T09:17:40.967Z,74.12
2023-04-23T09:20:10.986Z,72.46
2023-04-23T09:22:55.220Z,70.71
2023-04-23T09:25:23.798Z,67.41
2023-04-23T09:27:52.094Z,71.21
2023-04-23T09:30:19.714Z,67.54
2023-04-23T09:32:47.710Z,67.44
2023-04-23T09:35:17.026Z,67.44
2023-04-23T09:37:48.462Z,68.16
2023-04-23T09:40:17.211Z,67.69
2023-04-23T09:42:49.648Z,66.54
2023-04-23T09:45:16.589Z,63.34
2023-04-23T09:47:53.370Z,66.51
2023-04-23T09:50:31.401Z,66.52
2023-04-23T09:52:57.998Z,66.49
2023-04-23T09:55:30.731Z,62.31
2023-04-23T09:57:58.170Z,66.06
2023-04-23T10:00:29.302Z,64.80
2023-04-23T10:02:56.033Z,64.22
2023-04-23T10:05:26.011Z,63.31
2023-04-23T10:07:59.358Z,62.52
2023-04-23T10:10:26.135Z,60.72
2023-04-23T10:12:55.742Z,62.25
2023-04-23T10:15:25.390Z,63.05
2023-04-23T10:17:52.483Z,61.06
2023-04-23T10:20:21.698Z,62.07
2023-04-23T10:22:48.909Z,61.29
2023-04-23T10:25:16.008Z,57.66
2023-04-23T10:27:52.091Z,60.22
2023-04-23T10:30:20.628Z,58.11
2023-04-23T10:32:49.311Z,56.33
2023-04-23T10:35:16.026Z,55.31
2023-04-23T10:37:44.340Z,55.56
2023-04-23T10:40:14.325Z,56.89
2023-04-23T10:42:42.879Z,54.37
2023-04-23T10:45:23.454Z,57.38
2023-04-23T10:47:51.034Z,55.94
2023-04-23T10:50:34.775Z,54.82
2023-04-23T10:53:02.480Z,55.96
2023-04-23T10:55:31.197Z,55.50
2023-04-23T10:58:09.067Z,56.38
2023-04-23T11:00:41.378Z,54.44
2023-04-23T11:03:37.955Z,55.20
2023-04-23T11:06:07.181Z,55.17
2023-04-23T11:08:39.997Z,55.98
2023-04-23T11:11:08.416Z,56.20
2023-04-23T11:13:35.014Z,56.42
2023-04-23T11:16:21.801Z,57.03
2023-04-23T11:19:03.018Z,57.24
2023-04-23T11:22:01.482Z,56.42
2023-04-23T11:24:33.402Z,55.56
2023-04-23T11:27:01.278Z,55.75
2023-04-23T11:29:28.364Z,58.38
2023-04-23T11:34:26.203Z,56.62
2023-04-23T11:36:54.733Z,56.73
2023-04-23T11:39:24.660Z,55.89
2023-04-23T11:41:54.719Z,57.21
2023-04-23T11:44:21.816Z,55.75
2023-04-23T11:46:49.975Z,56.67
2023-04-23T11:49:20.649Z,53.67
2023-04-23T11:51:47.939Z,53.87
2023-04-23T11:54:15.190Z,54.12
2023-04-23T11:56:42.183Z,53.29
2023-04-23T11:59:09.496Z,52.34
2023-04-23T12:01:58.069Z,51.75
2023-04-23T12:04:29.143Z,54.18
2023-04-23T12:06:57.425Z,55.31
2023-04-23T12:09:26.326Z,54.65
2023-04-23T12:11:53.106Z,54.84
2023-04-23T12:14:30.660Z,57.18
2023-04-23T12:17:08.612Z,58.15
2023-04-23T12:19:35.145Z,57.63
2023-04-23T12:22:03.812Z,58.75
2023-04-23T12:24:33.530Z,57.65
2023-04-23T12:27:02.548Z,56.16
2023-04-23T12:29:31.145Z,55.46
2023-04-23T12:32:00.515Z,54.71
2023-04-23T12:34:27.011Z,55.33
2023-04-23T12:36:57.532Z,53.12
2023-04-23T12:39:34.989Z,54.08
2023-04-23T12:42:06.772Z,53.16
2023-04-23T12:44:39.541Z,54.46
2023-04-23T12:47:08.362Z,53.98
2023-04-23T12:49:36.772Z,54.61
2023-04-23T12:52:06.550Z,53.17
2023-04-23T12:54:38.421Z,52.50
2023-04-23T12:57:11.557Z,53.31
2023-04-23T12:59:42.282Z,54.02
2023-04-23T13:02:09.353Z,52.89
2023-04-23T13:04:36.416Z,53.19
2023-04-23T13:07:04.317Z,52.95
2023-04-23T13:09:30.912Z,52.47
2023-04-23T13:11:57.694Z,55.35
2023-04-23T13:14:24.159Z,57.64
2023-04-23T13:16:51.017Z,55.05
2023-04-23T13:19:18.002Z,54.86
2023-04-23T13:21:45.208Z,53.91
2023-04-23T13:24:11.964Z,54.18
2023-04-23T13:26:38.498Z,55.53
2023-04-23T13:29:05.277Z,54.89
2023-04-23T13:31:35.193Z,54.73
2023-04-23T13:34:02.960Z,53.92
2023-04-23T13:36:29.690Z,53.31
2023-04-23T13:38:56.253Z,51.45
2023-04-23T13:41:22.843Z,51.43
2023-04-23T13:43:49.504Z,51.33
2023-04-23T13:46:16.755Z,51.89
2023-04-23T13:48:43.312Z,51.53
2023-04-23T13:51:26.128Z,52.99
2023-04-23T13:53:59.600Z,54.69
2023-04-23T13:56:31.646Z,54.53
2023-04-23T13:59:18.979Z,54.75
2023-04-23T14:01:50.057Z,54.43
2023-04-23T14:04:17.808Z,54.80
2023-04-23T14:06:44.503Z,53.19
2023-04-23T14:09:11.308Z,53.37
2023-04-23T14:11:40.259Z,53.90
2023-04-23T14:14:07.556Z,53.97
2023-04-23T14:16:34.083Z,53.25
2023-04-23T14:19:00.826Z,53.53
2023-04-23T14:21:27.636Z,54.69
2023-04-23T14:24:08.051Z,53.15
2023-04-23T14:26:48.083Z,52.92
2023-04-23T14:29:40.345Z,52.57
2023-04-23T14:32:07.086Z,50.88
2023-04-23T14:34:36.458Z,52.24
2023-04-23T14:37:03.913Z,52.31
2023-04-23T14:39:30.573Z,53.90
2023-04-23T14:41:57.121Z,52.31
2023-04-23T14:44:24.802Z,51.27
2023-04-23T14:46:51.324Z,52.61
2023-04-23T14:49:18.997Z,52.78
2023-04-23T14:51:45.474Z,54.16
2023-04-23T14:54:12.121Z,53.38
2023-04-23T14:56:38.675Z,52.89
2023-04-23T14:59:05.176Z,53.84
2023-04-23T15:01:31.734Z,54.23
2023-04-23T15:03:58.499Z,53.78
2023-04-23T15:06:25.073Z,57.23
2023-04-23T15:08:51.513Z,53.21
2023-04-23T15:11:18.158Z,54.90
2023-04-23T15:14:30.588Z,61.00
2023-04-23T15:16:57.110Z,62.18
2023-04-23T15:19:23.680Z,63.65
2023-04-23T15:21:50.498Z,65.42
2023-04-23T15:24:17.167Z,67.38
2023-04-23T15:26:45.764Z,66.86
2023-04-23T15:29:13.419Z,67.99
2023-04-23T15:31:40.746Z,67.72
2023-04-23T15:34:08.926Z,68.81
2023-04-23T15:36:37.521Z,67.21
2023-04-23T15:39:04.565Z,67.12
2023-04-23T15:41:31.093Z,68.30
2023-04-23T15:43:57.604Z,66.98
2023-04-23T15:46:24.105Z,66.12
2023-04-23T15:48:50.560Z,65.77
2023-04-23T15:51:20.098Z,66.80
2023-04-23T15:53:46.590Z,67.96
2023-04-23T15:56:13.105Z,66.43
2023-04-23T15:58:39.561Z,65.67
2023-04-23T16:01:07.635Z,66.53
2023-04-23T16:03:34.479Z,65.18
2023-04-23T16:06:01.471Z,65.91
2023-04-23T16:08:31.454Z,66.62
2023-04-23T16:10:59.316Z,67.21
2023-04-23T16:13:27.432Z,66.64
2023-04-23T16:15:53.994Z,68.58
2023-04-23T16:18:20.753Z,72.97
2023-04-23T16:20:50.867Z,75.79
2023-04-23T16:23:17.374Z,77.58
2023-04-23T16:25:44.574Z,73.38
2023-04-23T16:28:13.811Z,75.40
2023-04-23T16:30:40.517Z,75.46
2023-04-23T16:33:07.158Z,76.96
2023-04-23T16:35:33.769Z,75.93
2023-04-23T16:38:00.397Z,76.00
2023-04-23T16:40:27.728Z,75.69
2023-04-23T16:42:54.280Z,76.74
2023-04-23T16:45:23.058Z,76.96
2023-04-23T16:47:52.566Z,76.94
2023-04-23T16:50:19.139Z,76.81
2023-04-23T16:52:45.900Z,77.45
2023-04-23T16:55:12.376Z,79.32
2023-04-23T16:57:38.974Z,78.96
2023-04-23T17:00:06.161Z,79.86
2023-04-23T17:02:34.507Z,81.22
2023-04-23T17:05:01.805Z,80.10
2023-04-23T17:07:28.851Z,82.34
2023-04-23T17:09:55.370Z,83.48
2023-04-23T17:12:24.953Z,83.95
2023-04-23T17:14:54.236Z,83.49
2023-04-23T17:17:20.760Z,83.97
2023-04-23T17:19:47.343Z,83.38
2023-04-23T17:22:13.905Z,85.99
2023-04-23T17:24:40.709Z,86.76
2023-04-23T17:27:07.568Z,85.98
2023-04-23T17:29:34.077Z,85.72
2023-04-23T17:32:02.727Z,86.76
2023-04-23T17:34:29.303Z,87.88
2023-04-23T17:36:56.006Z,88.48
2023-04-23T17:39:23.677Z,88.86
2023-04-23T17:41:50.161Z,89.65
2023-04-23T17:44:16.967Z,90.88
2023-04-23T17:46:43.406Z,89.82
2023-04-23T17:49:10.671Z,90.93
2023-04-23T17:51:37.409Z,90.76
2023-04-23T17:54:04.207Z,89.88
2023-04-23T17:56:31.094Z,90.30
2023-04-23T17:58:57.651Z,90.27
2023-04-23T18:01:24.347Z,90.64
2023-04-23T18:03:51.690Z,91.04
2023-04-23T18:06:18.402Z,91.04
2023-04-23T18:08:44.950Z,88.34
2023-04-23T18:11:11.628Z,88.54
2023-04-23T18:13:38.322Z,88.34
2023-04-23T18:16:04.777Z,89.51
2023-04-23T18:18:31.322Z,91.05
2023-04-23T18:20:58.002Z,91.68
2023-04-23T18:23:26.109Z,92.26
2023-04-23T18:25:52.636Z,92.69
2023-04-23T18:28:19.129Z,94.99
2023-04-23T18:30:45.717Z,95.85
2023-04-23T18:33:34.328Z,96.51
2023-04-23T18:36:04.580Z,95.44
2023-04-23T18:38:40.886Z,94.78
2023-04-23T18:41:07.391Z,95.74
2023-04-23T18:43:34.443Z,96.84
2023-04-23T18:46:01.992Z,96.84
2023-04-23T18:48:41.463Z,96.53
2023-04-23T18:51:44.136Z,93.49
2023-04-23T18:54:14.967Z,90.44
2023-04-23T18:56:41.704Z,90.21
2023-04-23T18:59:08.187Z,87.12
2023-04-23T19:01:34.815Z,84.20
2023-04-23T19:04:01.806Z,84.42
2023-04-23T19:06:28.421Z,83.53
2023-04-23T19:08:54.922Z,81.92
2023-04-23T19:11:21.482Z,81.97
2023-04-23T19:13:47.932Z,82.57
2023-04-23T19:16:16.747Z,80.83
2023-04-23T19:18:43.452Z,81.98
2023-04-23T19:21:10.535Z,82.41
2023-04-23T19:23:40.389Z,79.43
2023-04-23T19:26:09.263Z,77.86
2023-04-23T19:28:35.712Z,77.46
2023-04-23T19:31:03.433Z,76.32
2023-04-23T19:33:29.929Z,75.24
2023-04-23T19:36:02.061Z,74.64
2023-04-23T19:38:34.259Z,74.03
2023-04-23T19:41:07.856Z,73.16
2023-04-23T19:43:34.569Z,72.73
2023-04-23T19:46:01.165Z,72.47
2023-04-23T19:48:27.651Z,72.72
2023-04-23T19:50:55.226Z,71.93
2023-04-23T19:53:21.754Z,72.07
2023-04-23T19:55:48.231Z,71.97
2023-04-23T19:58:18.575Z,70.54
2023-04-23T20:00:46.009Z,70.24
2023-04-23T20:03:12.740Z,70.20
2023-04-23T20:05:39.564Z,69.78
2023-04-23T20:08:14.450Z,69.76
2023-04-23T20:10:42.292Z,69.80
2023-04-23T20:13:08.753Z,69.80
2023-04-23T20:15:38.758Z,69.96
2023-04-23T20:18:06.907Z,69.79
2023-04-23T20:20:33.986Z,69.10
2023-04-23T20:23:00.757Z,69.12
2023-04-23T20:25:27.226Z,69.53
2023-04-23T20:27:56.854Z,69.57
2023-04-23T20:30:23.931Z,69.75
2023-04-23T20:32:53.329Z,69.46
2023-04-23T20:35:19.887Z,69.66
2023-04-23T20:37:49.209Z,70.13
2023-04-23T20:40:15.772Z,69.98
2023-04-23T20:42:42.381Z,70.05
2023-04-23T20:45:09.502Z,69.71
2023-04-23T20:47:42.376Z,69.66
2023-04-23T20:50:09.318Z,69.65
2023-04-23T20:52:36.552Z,69.99
2023-04-23T20:55:09.879Z,70.29
2023-04-23T20:57:37.094Z,70.65
2023-04-23T21:00:08.456Z,70.62
2023-04-23T21:02:37.885Z,71.03
2023-04-23T21:05:06.694Z,71.05
2023-04-23T21:07:34.156Z,71.22
2023-04-23T21:10:00.658Z,72.26
2023-04-23T21:12:27.545Z,71.41
2023-04-23T21:14:58.030Z,71.67
2023-04-23T21:17:28.160Z,72.19
2023-04-23T21:19:56.155Z,72.02
2023-04-23T21:22:23.400Z,72.33
2023-04-23T21:24:50.401Z,71.61
2023-04-23T21:27:21.604Z,71.05
2023-04-23T21:29:48.653Z,72.22
2023-04-23T21:32:15.784Z,73.22
2023-04-23T21:34:42.725Z,74.84
2023-04-23T21:37:14.936Z,76.42
2023-04-23T21:39:41.532Z,77.64
2023-04-23T21:42:08.275Z,79.95
2023-04-23T21:44:36.537Z,82.34
2023-04-23T21:47:04.050Z,84.44
2023-04-23T21:49:31.654Z,85.97
2023-04-23T21:51:58.195Z,87.31
2023-04-23T21:54:28.133Z,88.65
2023-04-23T21:56:54.763Z,88.50
2023-04-23T21:59:23.267Z,88.79
2023-04-23T22:01:49.803Z,88.56
2023-04-23T22:04:17.797Z,89.22
2023-04-23T22:06:46.421Z,89.13
2023-04-23T22:09:13.596Z,88.88
2023-04-23T22:11:55.243Z,88.80
2023-04-23T22:14:27.929Z,89.43
2023-04-23T22:16:58.270Z,90.72
2023-04-23T22:19:25.639Z,90.30
2023-04-23T22:21:52.093Z,90.57
2023-04-23T22:24:18.585Z,90.68
2023-04-23T22:26:45.116Z,91.42
2023-04-23T22:29:11.673Z,91.41
2023-04-23T22:31:41.188Z,91.06
2023-04-23T22:34:10.693Z,91.27
2023-04-23T22:36:43.198Z,92.59
2023-04-23T22:39:10.725Z,92.37
2023-04-23T22:41:40.610Z,91.92
2023-04-23T22:44:07.138Z,91.72
2023-04-23T22:46:33.874Z,92.25
2023-04-23T22:49:01.338Z,92.20
2023-04-23T22:51:27.981Z,92.22
2023-04-23T22:53:54.450Z,91.83
2023-04-23T22:56:23.791Z,91.48
2023-04-23T22:58:50.356Z,91.82
2023-04-23T23:01:20.296Z,91.54
2023-04-23T23:03:46.908Z,91.90
2023-04-23T23:06:16.772Z,91.89
2023-04-23T23:08:46.162Z,91.45
2023-04-23T23:11:12.785Z,91.12
2023-04-23T23:13:40.535Z,91.48
2023-04-23T23:16:07.324Z,91.54
2023-04-23T23:18:33.823Z,91.75
2023-04-23T23:21:01.320Z,91.43
2023-04-23T23:23:30.883Z,92.02
2023-04-23T23:26:00.896Z,92.25
2023-04-23T23:28:27.465Z,91.22
2023-04-23T23:30:55.512Z,90.95
2023-04-23T23:33:22.352Z,91.14
2023-04-23T23:35:55.383Z,90.90
2023-04-23T23:38:22.039Z,90.92
2023-04-23T23:40:48.535Z,90.87
2023-04-23T23:43:19.238Z,90.89
2023-04-23T23:45:47.571Z,91.17
2023-04-23T23:48:17.884Z,91.32
2023-04-23T23:50:44.574Z,91.32
2023-04-23T23:53:11.045Z,91.33
2023-04-23T23:55:38.704Z,91.25
2023-04-23T23:58:06.152Z,91.27
